Time;durP1;ratioP1;P1;durP2;ratioP2;P2;SDS_P1;SDS_P2;PMS_P1;PMS_P2;Temp;Humidity;BMP_temperature;BMP_pressure;BME280_temperature;BME280_humidity;BME280_pressure;Samples;Min_cycle;Max_cycle;Signal;HPM_P1;HPM_P2
2023/03/15 00:01:53;;;;;;;6.57;1.63;;;3.20;99.90;;;;;;5068701;28;20476;-81
2023/03/15 00:04:20;;;;;;;4.32;1.17;;;3.30;99.90;;;;;;5052210;28;20070;-81
2023/03/15 00:06:46;;;;;;;5.38;1.20;;;4.10;99.90;;;;;;5051866;28;20119;-81
2023/03/15 00:09:12;;;;;;;5.63;1.90;;;4.60;99.90;;;;;;5052106;28;20124;-81
2023/03/15 00:11:37;;;;;;;7.07;1.70;;;3.30;99.90;;;;;;5068694;28;20451;-81
2023/03/15 00:14:04;;;;;;;4.55;1.10;;;4.80;99.90;;;;;;5038375;28;20047;-81
2023/03/15 00:16:31;;;;;;;11.85;2.60;;;4.00;99.90;;;;;;5072766;28;20083;-81
2023/03/15 00:18:57;;;;;;;5.97;1.17;;;3.20;99.90;;;;;;5072396;28;20118;-81
2023/03/15 00:21:23;;;;;;;8.18;1.30;;;3.70;99.90;;;;;;5073028;28;20036;-82
2023/03/15 00:23:49;;;;;;;7.45;1.65;;;3.00;99.90;;;;;;5053022;28;20052;-81
2023/03/15 00:26:15;;;;;;;10.68;1.73;;;2.90;99.90;;;;;;5055798;28;20063;-81
2023/03/15 00:28:41;;;;;;;8.48;1.55;;;2.90;99.90;;;;;;5072032;28;20036;-81
2023/03/15 00:31:11;;;;;;;9.20;1.13;;;2.80;99.90;;;;;;5072360;28;20138;-81
2023/03/15 00:33:37;;;;;;;6.55;1.48;;;2.80;99.90;;;;;;5055576;28;20036;-81
2023/03/15 00:36:06;;;;;;;8.57;1.13;;;2.80;99.90;;;;;;5071714;28;20454;-81
2023/03/15 00:38:33;;;;;;;5.78;1.13;;;2.70;99.90;;;;;;5086737;28;20298;-81
2023/03/15 00:41:11;;;;;;;8.80;1.30;;;2.70;99.90;;;;;;5071620;28;20063;-81
2023/03/15 00:43:37;;;;;;;9.05;1.30;;;2.90;99.90;;;;;;5055978;28;20396;-81
2023/03/15 00:46:03;;;;;;;4.72;1.10;;;3.40;99.90;;;;;;5038583;28;20044;-81
2023/03/15 00:48:29;;;;;;;6.80;1.45;;;2.60;99.90;;;;;;5055501;28;20032;-82
2023/03/15 00:51:22;;;;;;;6.88;1.67;;;3.50;99.90;;;;;;5055762;28;20036;-82
2023/03/15 00:53:50;;;;;;;7.75;1.73;;;2.50;99.90;;;;;;5069719;28;20048;-82
2023/03/15 00:56:20;;;;;;;8.75;1.50;;;2.50;99.90;;;;;;5071944;28;20039;-82
2023/03/15 00:58:46;;;;;;;5.85;1.30;;;2.30;99.90;;;;;;5055006;28;20040;-82
2023/03/15 01:01:17;;;;;;;5.25;1.15;;;2.30;99.90;;;;;;5055290;28;20033;-81
2023/03/15 01:03:44;;;;;;;7.90;1.30;;;2.30;99.90;;;;;;5071437;28;20119;-82
2023/03/15 01:06:16;;;;;;;5.85;1.13;;;2.60;99.90;;;;;;5071681;28;20443;-82
2023/03/15 01:08:42;;;;;;;5.85;1.10;;;3.40;99.90;;;;;;5071899;28;20458;-82
2023/03/15 01:11:11;;;;;;;7.55;1.00;;;2.90;99.90;;;;;;5071626;28;20124;-81
2023/03/15 01:13:39;;;;;;;4.65;1.33;;;3.60;99.90;;;;;;5054977;28;20496;-81
2023/03/15 01:16:06;;;;;;;9.07;1.45;;;2.50;99.90;;;;;;5071208;28;20068;-82
2023/03/15 01:18:31;;;;;;;7.18;1.20;;;2.50;99.90;;;;;;5054928;28;20036;-81
2023/03/15 01:20:58;;;;;;;5.28;1.35;;;2.50;99.90;;;;;;5070748;28;20086;-82
2023/03/15 01:23:23;;;;;;;6.32;1.50;;;3.10;99.90;;;;;;5071250;28;20036;-82
2023/03/15 01:25:49;;;;;;;9.23;1.10;;;2.50;99.90;;;;;;5070739;28;20055;-82
2023/03/15 01:28:15;;;;;;;7.63;0.95;;;3.00;99.90;;;;;;5054942;28;20047;-82
2023/03/15 01:30:49;;;;;;;5.65;1.10;;;3.90;99.90;;;;;;5071247;28;20119;-81
2023/03/15 01:33:14;;;;;;;6.63;1.20;;;2.30;99.90;;;;;;5038517;28;20139;-81
2023/03/15 01:35:40;;;;;;;9.67;1.20;;;2.90;99.90;;;;;;5037865;28;20471;-82
2023/03/15 01:38:06;;;;;;;3.87;1.00;;;2.20;99.90;;;;;;5070816;28;20283;-82
2023/03/15 01:40:31;;;;;;;4.87;0.87;;;2.90;99.90;;;;;;5037810;28;20081;-81
2023/03/15 01:43:03;;;;;;;4.30;1.00;;;2.90;99.90;;;;;;5070625;28;20275;-81
2023/03/15 01:46:08;;;;;;;8.63;1.30;;;2.10;99.90;;;;;;5070839;28;20044;-82
2023/03/15 01:48:43;;;;;;;5.75;1.48;;;2.10;99.90;;;;;;5063607;28;20059;-82
2023/03/15 01:51:23;;;;;;;5.05;1.02;;;2.00;99.90;;;;;;5053838;28;20044;-82
2023/03/15 01:54:01;;;;;;;4.95;1.30;;;2.00;99.90;;;;;;5053877;28;20040;-82
2023/03/15 01:56:30;;;;;;;11.73;1.27;;;3.10;99.90;;;;;;5070108;28;20036;-81
2023/03/15 01:58:58;;;;;;;3.47;1.00;;;1.90;99.90;;;;;;5070151;28;20105;-81
2023/03/15 02:01:24;;;;;;;4.30;1.23;;;1.90;99.90;;;;;;5053754;28;20032;-81
2023/03/15 02:04:00;;;;;;;6.00;1.08;;;2.00;99.90;;;;;;5053678;28;20425;-81
2023/03/15 02:06:26;;;;;;;4.45;1.05;;;1.80;99.90;;;;;;5070441;28;20041;-82
2023/03/15 02:09:05;;;;;;;6.55;1.70;;;1.80;99.90;;;;;;5053311;28;20066;-81
2023/03/15 02:11:30;;;;;;;4.88;1.35;;;2.80;99.90;;;;;;5070389;28;20051;-80
2023/03/15 02:13:57;;;;;;;6.47;1.10;;;3.00;99.90;;;;;;5069878;28;20111;-80
2023/03/15 02:16:24;;;;;;;5.60;1.20;;;1.70;99.90;;;;;;5053780;28;20044;-80
2023/03/15 02:18:49;;;;;;;5.88;1.40;;;1.70;99.90;;;;;;5070087;28;20051;-80
2023/03/15 02:21:24;;;;;;;4.40;1.00;;;1.60;99.90;;;;;;5070525;28;20052;-81
2023/03/15 02:24:12;;;;;;;3.15;0.88;;;1.60;99.90;;;;;;5067823;28;20056;-80
2023/03/15 02:26:48;;;;;;;8.23;1.02;;;1.60;99.90;;;;;;5052805;28;20052;-80
2023/03/15 02:29:14;;;;;;;6.63;1.00;;;1.60;99.90;;;;;;5069846;28;20481;-80
2023/03/15 02:31:40;;;;;;;2.72;1.30;;;3.10;99.90;;;;;;5053308;28;20043;-80
2023/03/15 02:34:07;;;;;;;7.03;1.20;;;1.90;99.90;;;;;;5052781;28;20104;-80
2023/03/15 02:36:34;;;;;;;5.20;1.02;;;1.70;99.90;;;;;;5069380;28;20481;-80
2023/03/15 02:39:00;;;;;;;5.18;1.00;;;3.10;99.90;;;;;;5052923;28;20111;-80
2023/03/15 02:41:38;;;;;;;4.28;1.10;;;1.60;99.90;;;;;;5053396;28;20119;-80
2023/03/15 02:44:10;;;;;;;6.10;1.30;;;1.60;99.90;;;;;;5084736;28;20112;-80
2023/03/15 02:46:36;;;;;;;7.95;1.48;;;1.60;99.90;;;;;;5069563;28;20111;-80
2023/03/15 02:49:03;;;;;;;5.03;1.00;;;1.80;99.90;;;;;;5053095;28;20037;-80
2023/03/15 02:51:32;;;;;;;4.07;1.35;;;1.90;99.90;;;;;;5052847;28;20048;-80
2023/03/15 02:53:57;;;;;;;5.43;1.30;;;2.00;99.90;;;;;;5053564;28;20549;-80
2023/03/15 02:56:23;;;;;;;3.67;0.90;;;2.10;99.90;;;;;;5070050;28;20111;-81
2023/03/15 02:58:49;;;;;;;6.07;0.98;;;1.90;99.90;;;;;;5069442;28;20037;-80
2023/03/15 03:01:16;;;;;;;4.97;1.27;;;2.90;99.90;;;;;;5069435;28;20098;-81
2023/03/15 03:03:43;;;;;;;7.53;1.08;;;1.60;99.90;;;;;;5052512;28;20040;-80
2023/03/15 03:06:10;;;;;;;6.68;1.48;;;1.60;99.90;;;;;;5052565;28;20424;-80
2023/03/15 03:08:37;;;;;;;6.05;1.20;;;3.30;99.90;;;;;;5050766;28;20052;-80
2023/03/15 03:11:02;;;;;;;8.00;1.45;;;1.50;99.90;;;;;;5069490;28;20384;-80
2023/03/15 03:13:28;;;;;;;7.13;1.42;;;1.50;99.90;;;;;;5069783;28;20097;-80
2023/03/15 03:15:57;;;;;;;2.22;0.80;;;1.60;99.90;;;;;;5052697;28;20032;-80
2023/03/15 03:18:36;;;;;;;2.17;0.88;;;3.10;99.90;;;;;;5052783;28;20040;-80
2023/03/15 03:21:05;;;;;;;2.95;0.90;;;1.80;99.90;;;;;;5067586;28;20040;-80
2023/03/15 03:23:32;;;;;;;5.95;1.20;;;1.50;99.90;;;;;;5070111;28;20544;-80
2023/03/15 03:25:58;;;;;;;6.63;0.93;;;1.50;99.90;;;;;;5069514;28;20043;-80
2023/03/15 03:28:26;;;;;;;3.63;0.98;;;2.80;99.90;;;;;;5070430;28;20057;-80
2023/03/15 03:30:54;;;;;;;5.70;1.10;;;1.60;99.90;;;;;;5070442;28;20047;-80
2023/03/15 03:33:20;;;;;;;5.60;0.90;;;1.40;99.90;;;;;;5070296;28;20119;-81
2023/03/15 03:35:47;;;;;;;4.38;0.75;;;1.60;99.90;;;;;;5054616;28;20032;-80
2023/03/15 03:38:13;;;;;;;;;;;1.40;99.90;;;;;;5071386;28;20040;-80
2023/03/15 03:40:39;;;;;;;2.63;0.75;;;1.40;99.90;;;;;;5071159;28;19924;-81
2023/03/15 03:43:06;;;;;;;3.50;0.73;;;2.10;99.90;;;;;;5053933;28;20035;-81
2023/03/15 03:45:32;;;;;;;5.35;0.70;;;2.30;99.90;;;;;;5053424;28;20047;-80
2023/03/15 03:47:57;;;;;;;3.78;0.93;;;1.30;99.90;;;;;;5068582;28;20396;-81
2023/03/15 03:50:23;;;;;;;3.83;0.88;;;1.30;99.90;;;;;;5073827;28;20049;-81
2023/03/15 03:52:49;;;;;;;2.75;0.88;;;1.30;99.90;;;;;;5057163;28;20115;-81
2023/03/15 03:55:15;;;;;;;4.18;1.02;;;1.20;99.90;;;;;;5057028;28;20490;-81
2023/03/15 03:57:41;;;;;;;8.15;1.25;;;1.20;99.90;;;;;;5040707;28;20040;-81
2023/03/15 04:00:17;;;;;;;6.40;1.30;;;1.90;99.90;;;;;;5056370;28;20044;-81
2023/03/15 04:02:43;;;;;;;6.03;1.00;;;1.20;99.90;;;;;;5088963;28;20044;-80
2023/03/15 04:05:12;;;;;;;3.67;1.20;;;1.40;99.90;;;;;;5056315;28;20036;-81
2023/03/15 04:07:37;;;;;;;6.32;1.65;;;1.20;99.90;;;;;;5040729;28;20029;-81
2023/03/15 04:10:04;;;;;;;7.43;1.30;;;1.10;99.90;;;;;;5073333;28;20450;-81
2023/03/15 04:12:30;;;;;;;3.22;1.00;;;1.10;99.90;;;;;;5041526;28;20081;-81
2023/03/15 04:14:56;;;;;;;7.28;1.10;;;1.10;99.90;;;;;;5042018;28;20119;-81
2023/03/15 04:17:22;;;;;;;6.20;1.53;;;2.20;99.90;;;;;;5057045;28;20051;-81
2023/03/15 04:19:48;;;;;;;4.78;1.05;;;2.80;99.90;;;;;;5057849;28;20279;-81
2023/03/15 04:22:14;;;;;;;4.43;1.42;;;1.80;99.90;;;;;;5074069;28;20041;-81
2023/03/15 04:24:43;;;;;;;6.90;1.27;;;2.10;99.90;;;;;;5058326;28;20040;-81
2023/03/15 04:27:13;;;;;;;5.60;1.10;;;1.30;99.90;;;;;;5057440;28;20044;-81
2023/03/15 04:29:41;;;;;;;4.05;0.90;;;1.10;99.90;;;;;;5073359;28;20063;-81
2023/03/15 04:32:07;;;;;;;3.53;1.00;;;1.70;99.90;;;;;;5040133;28;20524;-81
2023/03/15 04:34:37;;;;;;;3.63;0.80;;;1.00;99.90;;;;;;5055991;28;20047;-81
2023/03/15 04:37:04;;;;;;;3.25;0.77;;;2.00;99.90;;;;;;5040486;28;20518;-81
2023/03/15 04:39:30;;;;;;;5.65;0.98;;;1.00;99.90;;;;;;5055866;28;20592;-82
2023/03/15 04:41:55;;;;;;;2.92;0.95;;;0.90;99.90;;;;;;5055444;28;20036;-81
2023/03/15 04:44:25;;;;;;;4.00;1.17;;;0.90;99.90;;;;;;5055600;28;20040;-82
2023/03/15 04:46:51;;;;;;;8.18;1.23;;;1.00;99.90;;;;;;5072104;28;20067;-81
2023/03/15 04:49:17;;;;;;;;;;;2.50;99.90;;;;;;5055218;28;20068;-81
2023/03/15 04:51:43;;;;;;;2.67;0.73;;;0.80;99.90;;;;;;5058300;28;19983;-81
2023/03/15 04:54:08;;;;;;;3.47;1.07;;;0.90;99.90;;;;;;5038440;28;20045;-81
2023/03/15 04:56:35;;;;;;;3.30;0.80;;;0.80;99.90;;;;;;5038748;28;20051;-81
2023/03/15 04:59:01;;;;;;;3.38;0.80;;;0.80;99.90;;;;;;5071450;28;20819;-81
2023/03/15 05:01:30;;;;;;;2.13;0.98;;;0.70;99.90;;;;;;5054477;28;20135;-81
2023/03/15 05:03:56;;;;;;;3.35;1.10;;;0.70;99.90;;;;;;5052797;28;20115;-81
2023/03/15 05:06:22;;;;;;;;;;;0.70;99.90;;;;;;5071828;28;20045;-81
2023/03/15 05:08:47;;;;;;;1.35;0.77;;;2.20;99.90;;;;;;5071207;28;19916;-82
2023/03/15 05:11:13;;;;;;;4.30;0.90;;;0.70;99.90;;;;;;5072614;28;20055;-81
2023/03/15 05:13:39;;;;;;;5.38;1.00;;;0.70;99.90;;;;;;5056602;28;20282;-82
2023/03/15 05:16:05;;;;;;;3.60;1.07;;;1.50;99.90;;;;;;5056158;28;20051;-81
2023/03/15 05:18:30;;;;;;;4.40;1.65;;;0.70;99.90;;;;;;5072436;28;20036;-80
2023/03/15 05:20:56;;;;;;;2.10;0.80;;;0.70;99.90;;;;;;5055782;28;20411;-80
2023/03/15 05:23:23;;;;;;;3.72;0.90;;;0.70;99.90;;;;;;5055693;28;20275;-80
2023/03/15 05:25:52;;;;;;;2.75;1.10;;;0.70;99.90;;;;;;5072720;28;20095;-80
2023/03/15 05:28:23;;;;;;;5.03;1.05;;;0.70;99.90;;;;;;5071832;28;20057;-80
2023/03/15 05:30:51;;;;;;;4.72;0.98;;;0.60;99.90;;;;;;5073154;28;20117;-80
2023/03/15 05:33:16;;;;;;;7.05;1.35;;;0.60;99.90;;;;;;5073101;28;20036;-80
2023/03/15 05:35:43;;;;;;;4.03;1.17;;;1.10;99.90;;;;;;5073633;28;20432;-81
2023/03/15 05:38:13;;;;;;;6.13;0.95;;;1.50;99.90;;;;;;5056167;28;20037;-81
2023/03/15 05:40:44;;;;;;;5.03;1.40;;;0.60;99.90;;;;;;5056736;28;20036;-81
2023/03/15 05:43:09;;;;;;;4.80;1.02;;;0.60;99.90;;;;;;5072571;28;20063;-82
2023/03/15 05:45:36;;;;;;;4.85;1.10;;;2.30;99.90;;;;;;5072288;28;20382;-81
2023/03/15 05:48:02;;;;;;;1.75;0.95;;;0.80;99.90;;;;;;5055483;28;20024;-81
2023/03/15 05:50:28;;;;;;;6.22;1.20;;;0.70;99.90;;;;;;5053982;28;20094;-81
2023/03/15 05:52:54;;;;;;;3.92;0.90;;;0.70;99.90;;;;;;5070792;28;20044;-81
2023/03/15 05:55:20;;;;;;;;;;;2.20;99.90;;;;;;5053980;28;20106;-80
2023/03/15 05:57:45;;;;;;;6.70;1.00;;;2.10;99.90;;;;;;5054164;28;19916;-81
2023/03/15 06:00:13;;;;;;;9.68;1.30;;;0.90;99.90;;;;;;5071170;28;20044;-81
2023/03/15 06:02:40;;;;;;;5.88;1.50;;;1.00;99.90;;;;;;5037764;28;20076;-81
2023/03/15 06:05:06;;;;;;;3.55;1.10;;;2.50;99.90;;;;;;5054360;28;20052;-81
2023/03/15 06:07:32;;;;;;;7.47;1.13;;;1.10;99.90;;;;;;5054042;28;20078;-81
2023/03/15 06:09:58;;;;;;;8.43;1.42;;;1.20;99.90;;;;;;5070753;28;20487;-81
2023/03/15 06:12:24;;;;;;;4.22;1.25;;;1.50;99.90;;;;;;5037047;28;20032;-81
2023/03/15 06:14:50;;;;;;;6.25;1.35;;;1.20;99.90;;;;;;5070713;28;20040;-81
2023/03/15 06:17:16;;;;;;;6.22;1.40;;;2.40;99.90;;;;;;5054100;28;20070;-81
2023/03/15 06:19:41;;;;;;;4.85;1.40;;;2.00;99.90;;;;;;5038001;28;20048;-81
2023/03/15 06:22:07;;;;;;;8.43;1.42;;;1.10;99.90;;;;;;5070629;28;20138;-81
2023/03/15 06:24:33;;;;;;;7.57;1.35;;;1.10;99.90;;;;;;5070335;28;20385;-80
2023/03/15 06:26:59;;;;;;;2.40;0.95;;;1.10;99.90;;;;;;5052408;28;20423;-81
2023/03/15 06:29:25;;;;;;;5.03;1.25;;;1.10;99.90;;;;;;5053309;28;20036;-81
2023/03/15 06:31:51;;;;;;;4.68;1.25;;;1.10;99.90;;;;;;5069862;28;20130;-81
2023/03/15 06:34:17;;;;;;;4.13;1.23;;;1.40;99.90;;;;;;5070250;28;20040;-81
2023/03/15 06:36:44;;;;;;;2.40;1.02;;;1.20;99.90;;;;;;5053561;28;20052;-81
2023/03/15 06:39:11;;;;;;;6.22;1.30;;;1.20;99.90;;;;;;5070191;28;20067;-81
2023/03/15 06:41:37;;;;;;;6.35;1.02;;;1.30;99.90;;;;;;5069583;28;20049;-81
2023/03/15 06:44:03;;;;;;;;;;;1.40;99.90;;;;;;5070519;28;20488;-81
2023/03/15 06:46:28;;;;;;;4.25;1.30;;;1.50;99.90;;;;;;5086350;28;19928;-81
2023/03/15 06:48:54;;;;;;;5.07;1.20;;;1.60;99.90;;;;;;5070104;28;20044;-81
2023/03/15 06:51:20;;;;;;;3.90;1.13;;;1.70;99.90;;;;;;5069955;28;20051;-81
2023/03/15 06:53:46;;;;;;;4.55;1.08;;;1.70;99.90;;;;;;5053647;28;20553;-81
2023/03/15 06:56:11;;;;;;;6.43;1.25;;;2.30;99.90;;;;;;5053293;28;20090;-81
2023/03/15 06:58:37;;;;;;;4.17;0.97;;;3.40;99.90;;;;;;5053495;28;20049;-81
2023/03/15 07:01:03;;;;;;;8.07;1.35;;;2.10;99.90;;;;;;5069891;28;20127;-81
2023/03/15 07:03:29;;;;;;;4.10;1.20;;;2.20;99.90;;;;;;5052258;28;20036;-79
2023/03/15 07:05:55;;;;;;;7.28;1.42;;;2.30;99.90;;;;;;5052689;28;20048;-80
2023/03/15 07:08:22;;;;;;;11.25;2.03;;;2.40;99.90;;;;;;5052508;28;20045;-80
2023/03/15 07:10:49;;;;;;;6.63;1.33;;;2.50;99.90;;;;;;5069576;28;20068;-79
2023/03/15 07:13:15;;;;;;;4.30;1.27;;;3.80;99.90;;;;;;5053312;28;20032;-80
2023/03/15 07:15:40;;;;;;;5.13;1.10;;;2.80;99.90;;;;;;5052952;28;20039;-80
2023/03/15 07:18:06;;;;;;;4.93;1.20;;;3.70;99.90;;;;;;5053270;28;20119;-80
2023/03/15 07:20:32;;;;;;;9.15;1.67;;;3.20;99.90;;;;;;5052663;28;20039;-79
2023/03/15 07:22:58;;;;;;;6.38;1.15;;;4.40;99.90;;;;;;5069606;28;20469;-80
2023/03/15 07:25:24;;;;;;;6.32;1.83;;;3.50;99.90;;;;;;5069161;28;20040;-80
2023/03/15 07:27:51;;;;;;;5.40;1.83;;;3.70;99.90;;;;;;5069028;28;20060;-80
2023/03/15 07:30:19;;;;;;;6.57;1.10;;;4.00;99.90;;;;;;5069872;28;20373;-80
2023/03/15 07:32:45;;;;;;;7.82;1.02;;;3.80;99.90;;;;;;5052891;28;20427;-80
2023/03/15 07:35:11;;;;;;;4.15;1.13;;;4.10;99.90;;;;;;5069693;28;20036;-80
2023/03/15 07:37:37;;;;;;;8.68;1.30;;;4.20;99.90;;;;;;5069534;28;20055;-80
2023/03/15 07:40:05;;;;;;;6.63;1.30;;;4.30;99.90;;;;;;5053033;28;20036;-80
2023/03/15 07:42:31;;;;;;;4.50;0.93;;;4.50;99.90;;;;;;5050973;28;20465;-80
2023/03/15 07:44:56;;;;;;;4.73;1.20;;;4.90;99.90;;;;;;5069140;28;20047;-80
2023/03/15 07:47:22;;;;;;;9.50;1.50;;;5.10;99.90;;;;;;5052293;28;20036;-80
2023/03/15 07:49:48;;;;;;;3.23;1.07;;;5.70;99.90;;;;;;5069481;28;20310;-80
2023/03/15 07:52:13;;;;;;;4.37;1.23;;;6.30;99.90;;;;;;5036187;28;20310;-80
2023/03/15 07:54:39;;;;;;;5.10;1.17;;;6.80;99.90;;;;;;5052235;28;20041;-80
2023/03/15 07:57:05;;;;;;;10.73;1.33;;;7.20;99.90;;;;;;5035982;28;20041;-80
2023/03/15 07:59:31;;;;;;;3.03;0.70;;;7.60;99.90;;;;;;5068905;28;20041;-80
2023/03/15 08:01:56;;;;;;;5.07;1.10;;;8.00;99.90;;;;;;5069389;28;20059;-81
2023/03/15 08:04:22;;;;;;;8.10;1.07;;;8.30;99.90;;;;;;5069155;28;20282;-81
2023/03/15 08:06:48;;;;;;;3.42;0.95;;;8.60;99.90;;;;;;5035867;28;20287;-80
2023/03/15 08:09:13;;;;;;;5.20;1.60;;;9.00;99.90;;;;;;5052408;28;20121;-80
2023/03/15 08:11:39;;;;;;;5.03;1.13;;;9.30;99.90;;;;;;5068878;28;20649;-81
2023/03/15 08:14:05;;;;;;;6.72;1.02;;;9.60;99.90;;;;;;5068743;28;20047;-80
2023/03/15 08:16:30;;;;;;;7.43;1.30;;;9.50;99.90;;;;;;5069019;28;20056;-81
2023/03/15 08:18:56;;;;;;;6.23;1.03;;;9.80;99.90;;;;;;5052225;28;20059;-81
2023/03/15 08:21:22;;;;;;;2.90;0.80;;;10.00;99.90;;;;;;5068957;28;20691;-79
2023/03/15 08:23:47;;;;;;;7.15;1.20;;;10.30;99.90;;;;;;5033191;28;20045;-80
2023/03/15 08:26:14;;;;;;;5.68;0.95;;;10.60;99.90;;;;;;5036503;28;20048;-80
2023/03/15 08:28:39;;;;;;;6.38;1.13;;;10.40;99.90;;;;;;5069010;28;20263;-80
2023/03/15 08:31:07;;;;;;;6.15;1.25;;;10.40;99.90;;;;;;5069308;28;20119;-80
2023/03/15 08:33:32;;;;;;;4.22;1.02;;;10.70;99.90;;;;;;5052823;28;20036;-82
2023/03/15 08:35:58;;;;;;;6.45;1.25;;;10.90;99.90;;;;;;5056771;28;20095;-82
2023/03/15 08:38:25;;;;;;;4.53;0.90;;;11.40;99.90;;;;;;5022726;28;20059;-80
2023/03/15 08:40:55;;;;;;;5.40;0.98;;;11.40;99.90;;;;;;5072970;28;20068;-81
2023/03/15 08:43:21;;;;;;;5.78;1.30;;;11.40;99.90;;;;;;5056288;28;20079;-81
2023/03/15 08:45:48;;;;;;;5.20;0.90;;;11.50;99.90;;;;;;5038583;28;20082;-81
2023/03/15 08:48:14;;;;;;;4.40;0.88;;;11.90;99.90;;;;;;5070904;28;20445;-81
2023/03/15 08:50:40;;;;;;;4.43;0.73;;;11.90;99.90;;;;;;5038963;28;20120;-81
2023/03/15 08:53:06;;;;;;;4.07;0.90;;;11.60;99.90;;;;;;5038914;28;20047;-81
2023/03/15 08:55:32;;;;;;;;;;;11.70;99.90;;;;;;5039502;28;20087;-81
2023/03/15 08:58:00;;;;;;;5.80;0.90;;;11.70;99.90;;;;;;5056227;28;19916;-82
2023/03/15 09:00:26;;;;;;;3.20;0.77;;;12.00;99.90;;;;;;5072807;28;20040;-82
2023/03/15 09:02:55;;;;;;;4.75;0.88;;;12.20;99.90;;;;;;5054866;28;20040;-82
2023/03/15 09:05:23;;;;;;;3.35;0.82;;;12.40;99.90;;;;;;5054981;28;20036;-81
2023/03/15 09:07:51;;;;;;;5.43;1.13;;;12.00;99.90;;;;;;5038235;28;20438;-81
2023/03/15 09:10:18;;;;;;;4.70;1.05;;;12.00;99.90;;;;;;5072349;28;20040;-81
2023/03/15 09:12:47;;;;;;;2.80;0.80;;;12.30;99.90;;;;;;5054404;28;20094;-81
2023/03/15 09:15:13;;;;;;;5.43;1.10;;;12.50;99.90;;;;;;5055445;28;20059;-83
2023/03/15 09:17:39;;;;;;;4.82;0.80;;;12.70;99.90;;;;;;5055074;28;20104;-83
2023/03/15 09:20:10;;;;;;;6.72;1.13;;;12.90;99.90;;;;;;5056238;28;20033;-83
2023/03/15 09:22:36;;;;;;;5.47;1.10;;;12.70;99.90;;;;;;5057009;28;20052;-82
2023/03/15 09:25:02;;;;;;;3.65;0.80;;;12.90;99.10;;;;;;5039690;28;20134;-83
2023/03/15 09:27:31;;;;;;;7.63;1.00;;;13.20;99.80;;;;;;5055241;28;20123;-82
2023/03/15 09:29:57;;;;;;;5.03;0.90;;;13.50;99.20;;;;;;5055784;28;20386;-83
2023/03/15 09:32:22;;;;;;;5.45;1.08;;;13.70;98.30;;;;;;5055622;28;20042;-82
2023/03/15 09:34:48;;;;;;;5.07;1.00;;;13.70;98.00;;;;;;5055561;28;20106;-83
2023/03/15 09:37:14;;;;;;;5.40;0.95;;;14.20;98.50;;;;;;5039206;28;20068;-82
2023/03/15 09:39:40;;;;;;;7.75;1.08;;;14.20;97.90;;;;;;5039036;28;20044;-83
2023/03/15 09:42:15;;;;;;;7.70;1.00;;;14.00;97.00;;;;;;5072524;28;20039;-82
2023/03/15 09:44:47;;;;;;;2.17;0.63;;;14.60;97.30;;;;;;5070195;28;20052;-83
2023/03/15 09:47:34;;;;;;;5.47;0.88;;;14.70;97.20;;;;;;5055252;28;20032;-82
2023/03/15 09:50:20;;;;;;;3.60;0.98;;;15.10;95.90;;;;;;5055822;28;20555;-82
2023/03/15 09:52:49;;;;;;;5.60;0.68;;;14.90;95.30;;;;;;5069521;28;20039;-80
2023/03/15 09:55:18;;;;;;;5.38;0.80;;;14.80;95.70;;;;;;5070789;28;20090;-80
2023/03/15 09:58:10;;;;;;;3.22;0.80;;;15.20;94.20;;;;;;5051959;28;20044;-78
2023/03/15 10:00:44;;;;;;;4.00;0.80;;;15.00;94.60;;;;;;5070257;28;20048;-78
2023/03/15 10:03:34;;;;;;;3.72;0.70;;;15.10;94.00;;;;;;5051708;28;20044;-77
2023/03/15 10:06:17;;;;;;;5.65;1.27;;;15.10;94.60;;;;;;5069219;28;20047;-78
2023/03/15 10:08:44;;;;;;;4.80;0.90;;;15.20;94.60;;;;;;5069904;28;20071;-78
2023/03/15 10:11:22;;;;;;;7.45;0.77;;;15.10;94.00;;;;;;5053271;28;20040;-78
2023/03/15 10:14:15;;;;;;;6.80;1.08;;;15.10;94.50;;;;;;5069630;28;20075;-77
2023/03/15 10:16:44;;;;;;;4.55;0.60;;;15.60;94.70;;;;;;5051559;28;20618;-78
2023/03/15 10:19:32;;;;;;;6.38;0.70;;;15.80;93.90;;;;;;5053279;28;20051;-78
2023/03/15 10:22:03;;;;;;;3.83;0.77;;;16.00;93.80;;;;;;5050985;28;20400;-78
2023/03/15 10:24:50;;;;;;;7.13;0.90;;;15.70;93.30;;;;;;5069833;28;20128;-77
2023/03/15 10:27:19;;;;;;;6.65;0.95;;;15.60;94.50;;;;;;5068714;28;20052;-78
2023/03/15 10:29:50;;;;;;;5.05;0.80;;;15.80;92.90;;;;;;5051789;28;20076;-77
2023/03/15 10:32:19;;;;;;;6.57;0.85;;;15.50;93.60;;;;;;5052683;28;20036;-78
2023/03/15 10:34:51;;;;;;;4.32;0.65;;;15.30;93.10;;;;;;5069031;28;20052;-78
2023/03/15 10:37:18;;;;;;;4.28;0.60;;;15.10;93.40;;;;;;5067569;28;20040;-77
2023/03/15 10:39:52;;;;;;;5.78;0.75;;;14.40;93.80;;;;;;5068845;28;20116;-77
2023/03/15 10:42:26;;;;;;;5.72;0.70;;;14.00;94.80;;;;;;5069922;28;20047;-78
2023/03/15 10:44:51;;;;;;;4.15;0.90;;;14.10;94.20;;;;;;5069609;28;20037;-79
2023/03/15 10:47:20;;;;;;;3.80;0.77;;;14.60;92.90;;;;;;5069766;28;20040;-79
2023/03/15 10:49:47;;;;;;;4.47;0.80;;;15.20;93.90;;;;;;5066446;28;20149;-80
2023/03/15 10:52:35;;;;;;;5.50;1.00;;;16.20;94.50;;;;;;5070294;28;20119;-80
2023/03/15 10:55:05;;;;;;;7.30;0.88;;;16.60;93.60;;;;;;5069071;28;20115;-79
2023/03/15 10:57:38;;;;;;;4.57;0.85;;;17.00;92.60;;;;;;5069348;28;20060;-80
2023/03/15 11:00:19;;;;;;;5.50;0.98;;;16.60;92.00;;;;;;5068264;28;20040;-79
2023/03/15 11:03:01;;;;;;;4.82;0.95;;;16.30;92.70;;;;;;5069302;28;20037;-80
2023/03/15 11:05:37;;;;;;;5.50;1.00;;;15.90;92.30;;;;;;5068657;28;20044;-79
2023/03/15 11:08:03;;;;;;;5.93;0.80;;;16.70;92.40;;;;;;5052555;28;20120;-80
2023/03/15 11:10:34;;;;;;;5.70;0.82;;;16.40;92.20;;;;;;5069421;28;20060;-79
2023/03/15 11:13:11;;;;;;;6.32;0.98;;;16.50;92.70;;;;;;5069058;28;20068;-80
2023/03/15 11:15:39;;;;;;;6.38;0.85;;;16.70;90.90;;;;;;5069603;28;20068;-78
2023/03/15 11:18:05;;;;;;;6.55;0.88;;;16.90;90.40;;;;;;5052235;28;20048;-80
2023/03/15 11:20:35;;;;;;;4.80;1.33;;;16.30;90.60;;;;;;5069597;28;20118;-79
2023/03/15 11:23:32;;;;;;;4.15;0.63;;;16.90;91.50;;;;;;5069402;28;20036;-80
2023/03/15 11:25:58;;;;;;;5.03;0.50;;;16.60;91.50;;;;;;5052180;28;20727;-80
2023/03/15 11:28:31;;;;;;;3.17;0.75;;;16.40;91.50;;;;;;5069537;28;20056;-80
2023/03/15 11:30:59;;;;;;;2.67;0.75;;;17.00;90.70;;;;;;5068837;28;20075;-80
2023/03/15 11:33:37;;;;;;;6.95;0.93;;;17.30;91.00;;;;;;5056217;28;20037;-81
2023/03/15 11:36:07;;;;;;;3.22;0.60;;;17.80;90.30;;;;;;5052482;28;20029;-81
2023/03/15 11:38:42;;;;;;;6.18;0.80;;;18.00;90.80;;;;;;5053036;28;20037;-81
2023/03/15 11:41:30;;;;;;;3.83;0.80;;;18.10;90.90;;;;;;5051144;28;20059;-81
2023/03/15 11:44:19;;;;;;;4.30;0.70;;;18.20;90.40;;;;;;5051432;28;20036;-81
2023/03/15 11:46:49;;;;;;;4.22;1.02;;;17.70;89.90;;;;;;5069511;28;20045;-81
2023/03/15 11:49:31;;;;;;;4.88;0.70;;;17.80;89.30;;;;;;5067623;28;20037;-81
2023/03/15 11:51:56;;;;;;;2.95;0.65;;;17.80;89.40;;;;;;5069306;28;20028;-81
2023/03/15 11:54:27;;;;;;;4.78;0.63;;;17.20;84.80;;;;;;5036021;28;20029;-80
2023/03/15 11:57:02;;;;;;;3.17;0.60;;;15.90;87.60;;;;;;5069433;28;20385;-81
2023/03/15 11:59:38;;;;;;;2.33;0.55;;;15.90;87.50;;;;;;5067521;28;20135;-81
2023/03/15 12:02:12;;;;;;;3.40;0.60;;;16.10;86.30;;;;;;5052992;28;20098;-81
2023/03/15 12:04:42;;;;;;;4.75;0.60;;;16.70;85.60;;;;;;5053060;28;20051;-81
2023/03/15 12:07:17;;;;;;;3.95;1.08;;;17.00;86.10;;;;;;5049784;28;20499;-81
2023/03/15 12:10:17;;;;;;;4.25;0.82;;;17.50;85.20;;;;;;5069322;28;20098;-81
2023/03/15 12:12:55;;;;;;;3.63;1.00;;;17.50;85.40;;;;;;5047020;28;20044;-81
2023/03/15 12:15:27;;;;;;;4.78;0.70;;;17.40;84.90;;;;;;5070920;28;20051;-81
2023/03/15 12:17:58;;;;;;;4.10;0.63;;;17.50;82.90;;;;;;5072341;28;20033;-81
2023/03/15 12:20:36;;;;;;;7.03;0.93;;;17.20;83.20;;;;;;5056717;28;20044;-81
2023/03/15 12:23:17;;;;;;;3.85;0.70;;;17.40;82.70;;;;;;5055587;28;20048;-81
2023/03/15 12:26:02;;;;;;;3.55;0.70;;;18.20;84.20;;;;;;5053476;28;20040;-81
2023/03/15 12:28:34;;;;;;;3.78;0.60;;;18.50;82.70;;;;;;5072351;28;20052;-81
2023/03/15 12:31:03;;;;;;;6.18;0.77;;;18.20;84.20;;;;;;5071743;28;20051;-81
2023/03/15 12:33:31;;;;;;;4.28;0.77;;;18.70;81.80;;;;;;5072105;28;20046;-81
2023/03/15 12:36:07;;;;;;;4.82;0.80;;;18.40;83.80;;;;;;5072350;28;20419;-81
2023/03/15 12:38:37;;;;;;;2.45;0.68;;;17.80;82.40;;;;;;5055839;28;20055;-80
2023/03/15 12:41:07;;;;;;;4.88;0.70;;;17.60;82.30;;;;;;5071794;28;20041;-80
2023/03/15 12:43:42;;;;;;;4.50;1.05;;;17.30;84.10;;;;;;5072455;28;20047;-80
2023/03/15 12:46:42;;;;;;;3.13;0.80;;;17.40;84.20;;;;;;5070524;28;20044;-81
2023/03/15 12:49:26;;;;;;;4.43;0.77;;;18.30;85.10;;;;;;5054275;28;20044;-80
2023/03/15 12:52:00;;;;;;;6.57;1.10;;;18.30;83.90;;;;;;5055574;28;20067;-81
2023/03/15 12:54:41;;;;;;;5.28;0.88;;;17.80;83.70;;;;;;5055847;28;20055;-81
2023/03/15 12:57:11;;;;;;;4.97;0.90;;;17.60;82.60;;;;;;5069952;28;20075;-81
2023/03/15 12:59:54;;;;;;;4.80;0.88;;;17.90;84.90;;;;;;5072146;28;20037;-81
2023/03/15 13:02:32;;;;;;;3.47;0.63;;;17.70;83.00;;;;;;5053810;28;20066;-81
2023/03/15 13:05:22;;;;;;;4.22;0.98;;;17.30;84.40;;;;;;5071951;28;20044;-80
2023/03/15 13:07:57;;;;;;;4.43;0.60;;;17.50;83.90;;;;;;5071422;28;20469;-81